Stk-1020 — UCYT — position and weather

sailwx.info

Track history (hours):
 
Tides and Currents Weather Stations Pressure Air Temp Water Temp Dewpoint Dewpoint Depression Visibility Wind Speed Wind Dir Waves Ship Positions

Stk-1020

Last reported at 2015-Jul-01 00:22 UTC. Time now 2015-Jul-04 08:28 UTC.
Position N 59°51' E 030°30'.

Length 82 m; draft 2.4 m.

Type: Cargo ship. MMSI: 273362200.

Date/timePositionNaut miles runAvg speedWind from/ knotsBaromVisibWave heightAir tempDewpointWater temp
2015-Jul-01 00:22N 59°51' E 030°30'5 6.3
2015-Jun-30 23:33N 59°55' E 030°25'4 3.9
2015-Jun-30 22:33N 59°56' E 030°17'0 0.0
2015-Jun-30 21:33N 59°56' E 030°17'0 0.0
2015-Jun-30 20:33N 59°56' E 030°17'0 0.0
2015-Jun-30 19:33N 59°56' E 030°17'0 0.0
2015-Jun-30 18:32N 59°56' E 030°17'0 0.0
2015-Jun-30 17:33N 59°56' E 030°17'0 0.0
2015-Jun-30 16:33N 59°56' E 030°17'0 0.0
2015-Jun-30 15:31N 59°56' E 030°17'0 0.0
2015-Jun-30 14:29N 59°56' E 030°17'0 0.0
2015-Jun-30 13:32N 59°56' E 030°17'0 0.0
2015-Jun-30 12:33N 59°56' E 030°17'0 0.0
2015-Jun-30 11:33N 59°56' E 030°17'0 0.0
2015-Jun-30 10:31N 59°56' E 030°17'0 0.0
2015-Jun-30 09:32N 59°56' E 030°17'0 0.0
2015-Jun-30 08:32N 59°56' E 030°17'2 1.9
2015-Jun-30 07:33N 59°55' E 030°14'8 7.8
2015-Jun-30 06:33N 59°56' E 029°58'18 8.2
2015-Jun-30 04:22N 60°02' E 029°25'8 0.2
2015-Jun-28 03:12N 59°60' E 029°40'5 8.3
2015-Jun-28 02:33N 59°57' E 029°50'8 8.1
2015-Jun-28 01:33N 59°54' E 030°04'6 5.9
2015-Jun-28 00:33N 59°55' E 030°16'4 4.0
2015-Jun-27 23:33N 59°55' E 030°24'0 0.2
2015-Jun-27 22:33N 59°55' E 030°24'0 0.0
2015-Jun-27 21:33N 59°55' E 030°24'0 0.0
2015-Jun-27 20:33N 59°55' E 030°24'0 0.0
2015-Jun-27 19:33N 59°55' E 030°24'0 0.0
2015-Jun-27 18:33N 59°55' E 030°24'0 0.0
2015-Jun-27 17:33N 59°55' E 030°24'0 0.0
2015-Jun-27 16:33N 59°55' E 030°24'0 0.0
2015-Jun-27 15:33N 59°55' E 030°24'  
2015-Jun-22 19:32N 59°56' E 030°17'0 0.0
2015-Jun-22 18:33N 59°56' E 030°17'0 0.0
2015-Jun-22 17:31N 59°56' E 030°17'0 0.0
2015-Jun-22 16:31N 59°56' E 030°17'0 0.0
2015-Jun-22 15:33N 59°56' E 030°17'0 0.0
2015-Jun-22 14:31N 59°56' E 030°17'0 0.0
2015-Jun-22 13:32N 59°56' E 030°17'0 0.0
2015-Jun-22 12:29N 59°56' E 030°17'0 0.0
2015-Jun-22 11:33N 59°56' E 030°17'0 0.0
2015-Jun-22 10:31N 59°56' E 030°17'0 0.0
2015-Jun-22 09:28N 59°56' E 030°17'0 0.0
2015-Jun-22 08:31N 59°56' E 030°17'5 5.0
2015-Jun-22 07:33N 59°56' E 030°07'8 8.3
2015-Jun-22 06:33N 59°57' E 029°51'  
Track history (hours):
 
Tides and Currents Weather Stations Pressure Air Temp Water Temp Dewpoint Dewpoint Depression Visibility Wind Speed Wind Dir Waves Ship Positions

Stk-1020

Last reported at 2015-Jul-01 00:22 UTC. Time now 2015-Jul-04 08:28 UTC.
Position N 59°51' E 030°30'.

Length 82 m; draft 2.4 m.

Type: Cargo ship. MMSI: 273362200.

Date/timePositionNaut miles runAvg speedWind from/ knotsBaromVisibWave heightAir tempDewpointWater temp
2015-Jul-01 00:22N 59°51' E 030°30'5 6.3
2015-Jun-30 23:33N 59°55' E 030°25'4 3.9
2015-Jun-30 22:33N 59°56' E 030°17'0 0.0
2015-Jun-30 21:33N 59°56' E 030°17'0 0.0
2015-Jun-30 20:33N 59°56' E 030°17'0 0.0
2015-Jun-30 19:33N 59°56' E 030°17'0 0.0
2015-Jun-30 18:32N 59°56' E 030°17'0 0.0
2015-Jun-30 17:33N 59°56' E 030°17'0 0.0
2015-Jun-30 16:33N 59°56' E 030°17'0 0.0
2015-Jun-30 15:31N 59°56' E 030°17'0 0.0
2015-Jun-30 14:29N 59°56' E 030°17'0 0.0
2015-Jun-30 13:32N 59°56' E 030°17'0 0.0
2015-Jun-30 12:33N 59°56' E 030°17'0 0.0
2015-Jun-30 11:33N 59°56' E 030°17'0 0.0
2015-Jun-30 10:31N 59°56' E 030°17'0 0.0
2015-Jun-30 09:32N 59°56' E 030°17'0 0.0
2015-Jun-30 08:32N 59°56' E 030°17'2 1.9
2015-Jun-30 07:33N 59°55' E 030°14'8 7.8
2015-Jun-30 06:33N 59°56' E 029°58'18 8.2
2015-Jun-30 04:22N 60°02' E 029°25'8 0.2
2015-Jun-28 03:12N 59°60' E 029°40'5 8.3
2015-Jun-28 02:33N 59°57' E 029°50'8 8.1
2015-Jun-28 01:33N 59°54' E 030°04'6 5.9
2015-Jun-28 00:33N 59°55' E 030°16'4 4.0
2015-Jun-27 23:33N 59°55' E 030°24'0 0.2
2015-Jun-27 22:33N 59°55' E 030°24'0 0.0
2015-Jun-27 21:33N 59°55' E 030°24'0 0.0
2015-Jun-27 20:33N 59°55' E 030°24'0 0.0
2015-Jun-27 19:33N 59°55' E 030°24'0 0.0
2015-Jun-27 18:33N 59°55' E 030°24'0 0.0
2015-Jun-27 17:33N 59°55' E 030°24'0 0.0
2015-Jun-27 16:33N 59°55' E 030°24'0 0.0
2015-Jun-27 15:33N 59°55' E 030°24'  
2015-Jun-22 19:32N 59°56' E 030°17'0 0.0
2015-Jun-22 18:33N 59°56' E 030°17'0 0.0
2015-Jun-22 17:31N 59°56' E 030°17'0 0.0
2015-Jun-22 16:31N 59°56' E 030°17'0 0.0
2015-Jun-22 15:33N 59°56' E 030°17'0 0.0
2015-Jun-22 14:31N 59°56' E 030°17'0 0.0
2015-Jun-22 13:32N 59°56' E 030°17'0 0.0
2015-Jun-22 12:29N 59°56' E 030°17'0 0.0
2015-Jun-22 11:33N 59°56' E 030°17'0 0.0
2015-Jun-22 10:31N 59°56' E 030°17'0 0.0
2015-Jun-22 09:28N 59°56' E 030°17'0 0.0
2015-Jun-22 08:31N 59°56' E 030°17'5 5.0
2015-Jun-22 07:33N 59°56' E 030°07'8 8.3
2015-Jun-22 06:33N 59°57' E 029°51'  

Dump ship's entire track history